map of BAQ home
BAQ - Airport
Location
City:  Barranquilla, Atlántico, Colombia
Name:Ernesto Cortissoz International Airport
ICAO:SKBQ
IATA:BAQ

Details
Type:Airport (Aerodrome, Airfield)
Use:International (customs port of entry)
Latitude:10°53'22"N (10.889461)
Longitude:74°46'50"W (-74.780677)
Elevation:98 ft (30 m)
Variation:7.80°W (WMM2015 magnetic declination)
-0.13° annual change
Runways:1
Longest:9842 × 148 ft (3000 × 45 m), paved

Time
Time Zone:UTC-5
Local Time:

Weather
METAR:SKBQ 170100Z 01010KT 9999 FEW015 SCT200 27/25 A2986

Related Locations
Nearby:
Farthest:XCH: 12396 mi / 19950 km
Christmas Island, CX

Find:

   beyond  
but within

Other Information
Maps:
NOTAMs:
Links:
Sources:

  
  • flag of Colombia
  • flag of Atlántico
  • flag of Barranquilla
  

Airport Diagram

Airport diagram for BAQ

Larger airport diagram (OBSOLETE) from NGA

Sectional Chart

Flight Planning
at skyvector.com

Satellite Image

Google Maps Satellite view

 

Copyright © 2004-2018 Karl L. Swartz. All rights reserved.
The Great Circle Mapper name and logo are trademarks of the Great Circle Mapper.
All other trademarks mentioned herein belong to their respective owners.
Please see credits for attibutions and further copyright information.

  Follow gcmap on Facebook Follow gcmap on Twitter Follow gcmap on Google+ GCmap on LinkedIn

hCard Microformat

Geo Microformat